• Join FlightAware (Why Join?)
  • Login
  • US Flag 
11:13AM EST


 

Airport Tracker/Info


-or-


 

Live Flight TrackerFlight Track Log ✈ TAM3719 ✈ 07-May-2012 ✈ SBBR / BSB - SBSP / CGH

Flight Track Log - Related Links

Times and Time Zones

All times are in EDT time to prevent confusion due to time zone crossing. See the TAM3719 flight status page for this flight to view local times or setup timezone preferences in your user account.

Time Position Orientation Groundspeed Altitude Reporting Facility
EDT Latitude Longitude Course Direction KTS MPH feet Rate Location/Type
05:20AM -19.0543 -47.4106 171° South  Level Estimated
05:21AM -19.1467 -47.3958 171° South  Level Estimated
05:22AM -19.2391 -47.3809 171° South  Level Estimated
05:23AM -19.3315 -47.3661 171° South  Level Estimated
05:24AM -19.4239 -47.3512 171° South  Level Estimated
05:25AM -19.5163 -47.3363 171° South  Level Estimated
05:26AM -19.6087 -47.3214 171° South  Level Estimated
05:27AM -19.7011 -47.3065 171° South  Level Estimated
05:28AM -19.7935 -47.2916 171° South  Level Estimated
05:29AM -19.8859 -47.2767 171° South  Level Estimated
05:30AM -19.9783 -47.2617 171° South  Level Estimated
05:31AM -20.0707 -47.2467 171° South  Level Estimated
05:32AM -20.1631 -47.2317 171° South  Level Estimated
05:33AM -20.2555 -47.2167 171° South  Level Estimated
05:34AM -20.3479 -47.2017 171° South  Level Estimated
05:35AM -20.4402 -47.1866 171° South  Level Estimated
05:36AM -20.5326 -47.1716 171° South  Level Estimated
05:37AM -20.6250 -47.1565 171° South  Level Estimated
05:38AM -20.7174 -47.1413 171° South  Level Estimated
05:39AM -20.8098 -47.1262 171° South  Level Estimated
05:40AM -20.9022 -47.1111 171° South  Level Estimated
05:41AM -20.9945 -47.0959 171° South  Level Estimated
05:42AM -21.0869 -47.0807 171° South  Level Estimated
05:43AM -21.1793 -47.0655 171° South  Level Estimated
05:44AM -21.2717 -47.0503 171° South  Level Estimated
05:45AM -21.3640 -47.0351 171° South  Level Estimated
05:46AM -21.4564 -47.0198 171° South  Level Estimated
05:47AM -21.5488 -47.0045 171° South  Level Estimated
05:48AM -21.6412 -46.9892 171° South  Level Estimated
05:49AM -21.7335 -46.9739 171° South  Level Estimated
05:50AM -21.8259 -46.9586 171° South  Level Estimated
05:51AM -21.9183 -46.9432 171° South  Level Estimated
05:52AM -22.0106 -46.9278 171° South  Level Estimated
05:53AM -22.1030 -46.9124 171° South  Level Estimated
05:54AM -22.1953 -46.8970 171° South  Level Estimated
05:55AM -22.2877 -46.8816 171° South  Level Estimated
05:56AM -22.3801 -46.8661 171° South  Level Estimated
05:57AM -22.4724 -46.8506 171° South  Level Estimated
05:58AM -22.5648 -46.8351 171° South  Level Estimated
05:59AM -22.6571 -46.8196 171° South  Level Estimated
06:00AM -22.7495 -46.8041 171° South  Level Estimated
06:01AM -22.8418 -46.7885 171° South  Level Estimated
06:02AM -22.9342 -46.7729 171° South  Level Estimated
06:03AM -23.0265 -46.7573 171° South  Level Estimated
06:04AM -23.1189 -46.7417 171° South  Level Estimated
06:05AM -23.2112 -46.7260 171° South  Level Estimated
06:06AM -23.3036 -46.7104 171° South  Level Estimated
06:07AM -23.3959 -46.6947 171° South  Level Estimated
06:08AM -23.4882 -46.6790 171° South  Level Estimated
06:09AM -23.5806 -46.6632 171° South  Level Estimated
06:10AM -23.6729 -46.6475 351° North  Level Estimated
06:11AM -23.5806 -46.6632 171° South  Level Estimated
06:12AM -23.6729 -46.6475 351° North  Level Estimated
06:13AM -23.5806 -46.6632 351° North  Level Estimated